sensor_id;sensor_type;location;lat;lon;timestamp;temperature;humidity
52058;DHT22;38063;53.210;6.504;2023-11-18T00:00:49;1.40;99.90
52058;DHT22;38063;53.210;6.504;2023-11-18T00:03:15;1.40;99.90
52058;DHT22;38063;53.210;6.504;2023-11-18T00:05:40;1.50;99.90
52058;DHT22;38063;53.210;6.504;2023-11-18T00:08:06;1.40;99.90
52058;DHT22;38063;53.210;6.504;2023-11-18T00:10:32;1.40;99.90
52058;DHT22;38063;53.210;6.504;2023-11-18T00:12:57;1.40;99.90
52058;DHT22;38063;53.210;6.504;2023-11-18T00:15:23;1.40;99.90
52058;DHT22;38063;53.210;6.504;2023-11-18T00:17:49;1.40;99.90
52058;DHT22;38063;53.210;6.504;2023-11-18T00:20:14;1.40;99.90
52058;DHT22;38063;53.210;6.504;2023-11-18T00:22:42;1.40;99.90
52058;DHT22;38063;53.210;6.504;2023-11-18T00:25:09;1.40;99.90
52058;DHT22;38063;53.210;6.504;2023-11-18T00:27:34;1.40;99.90
52058;DHT22;38063;53.210;6.504;2023-11-18T00:30:04;1.40;99.90
52058;DHT22;38063;53.210;6.504;2023-11-18T00:32:39;1.40;99.90
52058;DHT22;38063;53.210;6.504;2023-11-18T00:35:05;1.30;99.90
52058;DHT22;38063;53.210;6.504;2023-11-18T00:37:32;1.30;99.90
52058;DHT22;38063;53.210;6.504;2023-11-18T00:39:58;1.40;99.90
52058;DHT22;38063;53.210;6.504;2023-11-18T00:42:24;1.40;99.90
52058;DHT22;38063;53.210;6.504;2023-11-18T00:44:49;1.40;99.90
52058;DHT22;38063;53.210;6.504;2023-11-18T00:47:15;1.40;99.90
52058;DHT22;38063;53.210;6.504;2023-11-18T00:49:41;1.40;99.90
52058;DHT22;38063;53.210;6.504;2023-11-18T00:52:06;1.40;99.90
52058;DHT22;38063;53.210;6.504;2023-11-18T00:54:32;1.40;99.90
52058;DHT22;38063;53.210;6.504;2023-11-18T00:56:59;1.40;99.90
52058;DHT22;38063;53.210;6.504;2023-11-18T00:59:25;1.40;99.90
52058;DHT22;38063;53.210;6.504;2023-11-18T01:01:52;1.40;99.90
52058;DHT22;38063;53.210;6.504;2023-11-18T01:04:17;1.50;99.90
52058;DHT22;38063;53.210;6.504;2023-11-18T01:06:45;1.50;99.90
52058;DHT22;38063;53.210;6.504;2023-11-18T01:09:11;1.50;99.90
52058;DHT22;38063;53.210;6.504;2023-11-18T01:11:37;1.50;99.90
52058;DHT22;38063;53.210;6.504;2023-11-18T01:14:03;1.50;99.90
52058;DHT22;38063;53.210;6.504;2023-11-18T01:16:28;1.50;99.90
52058;DHT22;38063;53.210;6.504;2023-11-18T01:18:54;2.40;99.90
52058;DHT22;38063;53.210;6.504;2023-11-18T01:21:20;1.50;99.90
52058;DHT22;38063;53.210;6.504;2023-11-18T01:23:47;1.50;99.90
52058;DHT22;38063;53.210;6.504;2023-11-18T01:26:14;1.50;99.90
52058;DHT22;38063;53.210;6.504;2023-11-18T01:28:41;1.50;99.90
52058;DHT22;38063;53.210;6.504;2023-11-18T01:31:11;1.50;99.90
52058;DHT22;38063;53.210;6.504;2023-11-18T01:33:40;1.50;99.90
52058;DHT22;38063;53.210;6.504;2023-11-18T01:36:09;1.50;99.90
52058;DHT22;38063;53.210;6.504;2023-11-18T01:38:36;1.50;99.90
52058;DHT22;38063;53.210;6.504;2023-11-18T01:41:06;1.50;99.90
52058;DHT22;38063;53.210;6.504;2023-11-18T01:43:32;1.50;99.90
52058;DHT22;38063;53.210;6.504;2023-11-18T01:46:07;1.60;99.90
52058;DHT22;38063;53.210;6.504;2023-11-18T01:48:36;1.60;99.90
52058;DHT22;38063;53.210;6.504;2023-11-18T01:51:04;1.60;99.90
52058;DHT22;38063;53.210;6.504;2023-11-18T01:53:32;1.60;99.90
52058;DHT22;38063;53.210;6.504;2023-11-18T01:55:59;1.60;99.90
52058;DHT22;38063;53.210;6.504;2023-11-18T01:58:25;1.60;99.90
52058;DHT22;38063;53.210;6.504;2023-11-18T02:00:51;1.60;99.90
52058;DHT22;38063;53.210;6.504;2023-11-18T02:03:17;1.60;99.90
52058;DHT22;38063;53.210;6.504;2023-11-18T02:05:43;1.60;99.90
52058;DHT22;38063;53.210;6.504;2023-11-18T02:08:10;1.60;99.90
52058;DHT22;38063;53.210;6.504;2023-11-18T02:10:51;1.60;99.90
52058;DHT22;38063;53.210;6.504;2023-11-18T02:13:29;1.60;99.90
52058;DHT22;38063;53.210;6.504;2023-11-18T02:15:56;1.60;99.90
52058;DHT22;38063;53.210;6.504;2023-11-18T02:18:26;1.70;99.90
52058;DHT22;38063;53.210;6.504;2023-11-18T02:20:57;1.70;99.90
52058;DHT22;38063;53.210;6.504;2023-11-18T02:23:24;1.70;99.90
52058;DHT22;38063;53.210;6.504;2023-11-18T02:25:51;1.70;99.90
52058;DHT22;38063;53.210;6.504;2023-11-18T02:28:18;1.80;99.90
52058;DHT22;38063;53.210;6.504;2023-11-18T02:30:45;1.80;99.90
52058;DHT22;38063;53.210;6.504;2023-11-18T02:33:23;1.80;99.90
52058;DHT22;38063;53.210;6.504;2023-11-18T02:35:53;1.90;99.90
52058;DHT22;38063;53.210;6.504;2023-11-18T02:38:35;1.90;99.90
52058;DHT22;38063;53.210;6.504;2023-11-18T02:41:06;1.90;99.90
52058;DHT22;38063;53.210;6.504;2023-11-18T02:43:36;1.90;99.90
52058;DHT22;38063;53.210;6.504;2023-11-18T02:46:04;1.90;99.90
52058;DHT22;38063;53.210;6.504;2023-11-18T02:48:31;1.90;99.90
52058;DHT22;38063;53.210;6.504;2023-11-18T02:50:59;2.00;99.90
52058;DHT22;38063;53.210;6.504;2023-11-18T02:53:25;1.90;99.90
52058;DHT22;38063;53.210;6.504;2023-11-18T02:55:51;1.90;99.90
52058;DHT22;38063;53.210;6.504;2023-11-18T02:58:18;1.90;99.90
52058;DHT22;38063;53.210;6.504;2023-11-18T03:00:44;2.10;99.90
52058;DHT22;38063;53.210;6.504;2023-11-18T03:03:10;1.90;99.90
52058;DHT22;38063;53.210;6.504;2023-11-18T03:05:36;1.90;99.90
52058;DHT22;38063;53.210;6.504;2023-11-18T03:08:03;1.90;99.90
52058;DHT22;38063;53.210;6.504;2023-11-18T03:10:32;1.90;99.90
52058;DHT22;38063;53.210;6.504;2023-11-18T03:13:01;1.90;99.90
52058;DHT22;38063;53.210;6.504;2023-11-18T03:15:27;2.00;99.90
52058;DHT22;38063;53.210;6.504;2023-11-18T03:17:53;2.00;99.90
52058;DHT22;38063;53.210;6.504;2023-11-18T03:20:21;2.00;99.90
52058;DHT22;38063;53.210;6.504;2023-11-18T03:22:49;2.00;99.90
52058;DHT22;38063;53.210;6.504;2023-11-18T03:25:16;2.00;99.90
52058;DHT22;38063;53.210;6.504;2023-11-18T03:27:43;2.00;99.90
52058;DHT22;38063;53.210;6.504;2023-11-18T03:30:09;2.10;99.90
52058;DHT22;38063;53.210;6.504;2023-11-18T03:32:35;2.00;99.90
52058;DHT22;38063;53.210;6.504;2023-11-18T03:35:03;2.10;99.90
52058;DHT22;38063;53.210;6.504;2023-11-18T03:37:29;2.10;99.90
52058;DHT22;38063;53.210;6.504;2023-11-18T03:39:56;2.20;99.90
52058;DHT22;38063;53.210;6.504;2023-11-18T03:42:22;2.20;99.90
52058;DHT22;38063;53.210;6.504;2023-11-18T03:44:48;2.20;99.90
52058;DHT22;38063;53.210;6.504;2023-11-18T03:47:14;2.20;99.90
52058;DHT22;38063;53.210;6.504;2023-11-18T03:49:40;2.20;99.90
52058;DHT22;38063;53.210;6.504;2023-11-18T03:52:06;2.30;99.90
52058;DHT22;38063;53.210;6.504;2023-11-18T03:54:32;2.30;99.90
52058;DHT22;38063;53.210;6.504;2023-11-18T03:56:58;2.30;99.90
52058;DHT22;38063;53.210;6.504;2023-11-18T03:59:25;2.30;99.90
52058;DHT22;38063;53.210;6.504;2023-11-18T04:01:51;2.30;99.90
52058;DHT22;38063;53.210;6.504;2023-11-18T04:04:17;2.30;99.90
52058;DHT22;38063;53.210;6.504;2023-11-18T04:06:43;2.30;99.90
52058;DHT22;38063;53.210;6.504;2023-11-18T04:09:09;2.40;99.90
52058;DHT22;38063;53.210;6.504;2023-11-18T04:11:36;2.40;99.90
52058;DHT22;38063;53.210;6.504;2023-11-18T04:14:01;2.40;99.90
52058;DHT22;38063;53.210;6.504;2023-11-18T04:16:29;2.40;99.90
52058;DHT22;38063;53.210;6.504;2023-11-18T04:18:54;2.40;99.90
52058;DHT22;38063;53.210;6.504;2023-11-18T04:21:21;2.50;99.90
52058;DHT22;38063;53.210;6.504;2023-11-18T04:23:47;2.50;99.90
52058;DHT22;38063;53.210;6.504;2023-11-18T04:26:12;2.50;99.90
52058;DHT22;38063;53.210;6.504;2023-11-18T04:28:38;2.50;99.90
52058;DHT22;38063;53.210;6.504;2023-11-18T04:31:04;2.60;99.90
52058;DHT22;38063;53.210;6.504;2023-11-18T04:33:31;2.60;99.90
52058;DHT22;38063;53.210;6.504;2023-11-18T04:35:57;2.60;99.90
52058;DHT22;38063;53.210;6.504;2023-11-18T04:38:23;2.60;99.90
52058;DHT22;38063;53.210;6.504;2023-11-18T04:40:49;2.60;99.90
52058;DHT22;38063;53.210;6.504;2023-11-18T04:43:15;2.60;99.90
52058;DHT22;38063;53.210;6.504;2023-11-18T04:45:44;2.70;99.90
52058;DHT22;38063;53.210;6.504;2023-11-18T04:48:09;2.70;99.90
52058;DHT22;38063;53.210;6.504;2023-11-18T04:50:35;3.00;99.90
52058;DHT22;38063;53.210;6.504;2023-11-18T04:53:01;2.70;99.90
52058;DHT22;38063;53.210;6.504;2023-11-18T04:55:29;2.70;99.90
52058;DHT22;38063;53.210;6.504;2023-11-18T04:57:54;2.70;99.90
52058;DHT22;38063;53.210;6.504;2023-11-18T05:00:20;2.80;99.90
52058;DHT22;38063;53.210;6.504;2023-11-18T05:02:47;2.80;99.90
52058;DHT22;38063;53.210;6.504;2023-11-18T05:05:16;2.80;99.90
52058;DHT22;38063;53.210;6.504;2023-11-18T05:07:43;2.80;99.90
52058;DHT22;38063;53.210;6.504;2023-11-18T05:10:09;2.90;99.90
52058;DHT22;38063;53.210;6.504;2023-11-18T05:12:38;2.90;99.90
52058;DHT22;38063;53.210;6.504;2023-11-18T05:15:07;2.90;99.90
52058;DHT22;38063;53.210;6.504;2023-11-18T05:17:37;2.90;99.90
52058;DHT22;38063;53.210;6.504;2023-11-18T05:20:03;3.00;99.90
52058;DHT22;38063;53.210;6.504;2023-11-18T05:22:29;3.00;99.90
52058;DHT22;38063;53.210;6.504;2023-11-18T05:24:55;3.00;99.90
52058;DHT22;38063;53.210;6.504;2023-11-18T05:27:20;3.00;99.90
52058;DHT22;38063;53.210;6.504;2023-11-18T05:29:46;3.00;99.90
52058;DHT22;38063;53.210;6.504;2023-11-18T05:32:20;3.00;99.90
52058;DHT22;38063;53.210;6.504;2023-11-18T05:34:46;3.00;99.90
52058;DHT22;38063;53.210;6.504;2023-11-18T05:37:11;3.10;99.90
52058;DHT22;38063;53.210;6.504;2023-11-18T05:39:37;3.10;99.90
52058;DHT22;38063;53.210;6.504;2023-11-18T05:42:09;3.10;99.90
52058;DHT22;38063;53.210;6.504;2023-11-18T05:44:36;3.10;99.90
52058;DHT22;38063;53.210;6.504;2023-11-18T05:47:05;3.30;99.90
52058;DHT22;38063;53.210;6.504;2023-11-18T05:49:31;3.20;99.90
52058;DHT22;38063;53.210;6.504;2023-11-18T05:51:57;3.10;99.90
52058;DHT22;38063;53.210;6.504;2023-11-18T05:54:22;3.20;99.90
52058;DHT22;38063;53.210;6.504;2023-11-18T05:56:48;3.20;99.90
52058;DHT22;38063;53.210;6.504;2023-11-18T05:59:14;3.20;99.90
52058;DHT22;38063;53.210;6.504;2023-11-18T06:01:40;3.20;99.90
52058;DHT22;38063;53.210;6.504;2023-11-18T06:04:06;3.60;99.90
52058;DHT22;38063;53.210;6.504;2023-11-18T06:06:34;3.20;99.90
52058;DHT22;38063;53.210;6.504;2023-11-18T06:08:59;3.20;99.90
52058;DHT22;38063;53.210;6.504;2023-11-18T06:11:34;3.20;99.90
52058;DHT22;38063;53.210;6.504;2023-11-18T06:14:01;3.30;99.90
52058;DHT22;38063;53.210;6.504;2023-11-18T06:16:27;3.30;99.90
52058;DHT22;38063;53.210;6.504;2023-11-18T06:18:57;3.30;99.90
52058;DHT22;38063;53.210;6.504;2023-11-18T06:21:25;3.30;99.90
52058;DHT22;38063;53.210;6.504;2023-11-18T06:23:54;3.30;99.90
52058;DHT22;38063;53.210;6.504;2023-11-18T06:26:20;3.30;99.90
52058;DHT22;38063;53.210;6.504;2023-11-18T06:28:48;3.30;99.90
52058;DHT22;38063;53.210;6.504;2023-11-18T06:31:14;3.70;99.90
52058;DHT22;38063;53.210;6.504;2023-11-18T06:33:41;3.40;99.90
52058;DHT22;38063;53.210;6.504;2023-11-18T06:36:18;3.40;99.90
52058;DHT22;38063;53.210;6.504;2023-11-18T06:38:50;3.40;99.90
52058;DHT22;38063;53.210;6.504;2023-11-18T06:41:18;3.40;99.90
52058;DHT22;38063;53.210;6.504;2023-11-18T06:43:45;3.40;99.90
52058;DHT22;38063;53.210;6.504;2023-11-18T06:46:32;3.40;99.90
52058;DHT22;38063;53.210;6.504;2023-11-18T06:49:03;3.50;99.90
52058;DHT22;38063;53.210;6.504;2023-11-18T06:51:41;3.40;99.90
52058;DHT22;38063;53.210;6.504;2023-11-18T06:54:07;3.50;99.90
52058;DHT22;38063;53.210;6.504;2023-11-18T06:56:37;3.50;99.90
52058;DHT22;38063;53.210;6.504;2023-11-18T06:59:07;3.50;99.90
52058;DHT22;38063;53.210;6.504;2023-11-18T07:01:33;3.50;99.90
52058;DHT22;38063;53.210;6.504;2023-11-18T07:03:59;3.50;99.90
52058;DHT22;38063;53.210;6.504;2023-11-18T07:06:25;3.50;99.90
52058;DHT22;38063;53.210;6.504;2023-11-18T07:08:53;3.60;99.90
52058;DHT22;38063;53.210;6.504;2023-11-18T07:11:19;3.60;99.90
52058;DHT22;38063;53.210;6.504;2023-11-18T07:13:47;3.60;99.90
52058;DHT22;38063;53.210;6.504;2023-11-18T07:16:13;3.60;99.90
52058;DHT22;38063;53.210;6.504;2023-11-18T07:18:40;3.60;99.90
52058;DHT22;38063;53.210;6.504;2023-11-18T07:21:07;3.60;99.90
52058;DHT22;38063;53.210;6.504;2023-11-18T07:23:34;3.70;99.90
52058;DHT22;38063;53.210;6.504;2023-11-18T07:26:01;3.70;99.90
52058;DHT22;38063;53.210;6.504;2023-11-18T07:28:27;3.70;99.90
52058;DHT22;38063;53.210;6.504;2023-11-18T07:30:53;3.70;99.90
52058;DHT22;38063;53.210;6.504;2023-11-18T07:33:20;3.70;99.90
52058;DHT22;38063;53.210;6.504;2023-11-18T07:35:47;3.80;99.90
52058;DHT22;38063;53.210;6.504;2023-11-18T07:38:14;3.80;99.90
52058;DHT22;38063;53.210;6.504;2023-11-18T07:40:40;3.80;99.90
52058;DHT22;38063;53.210;6.504;2023-11-18T07:43:17;3.90;99.90
52058;DHT22;38063;53.210;6.504;2023-11-18T07:45:44;3.90;99.90
52058;DHT22;38063;53.210;6.504;2023-11-18T07:48:11;3.90;99.90
52058;DHT22;38063;53.210;6.504;2023-11-18T07:50:39;3.90;99.90
52058;DHT22;38063;53.210;6.504;2023-11-18T07:53:08;3.90;99.90
52058;DHT22;38063;53.210;6.504;2023-11-18T07:55:34;4.00;99.90
52058;DHT22;38063;53.210;6.504;2023-11-18T07:58:00;4.00;99.90
52058;DHT22;38063;53.210;6.504;2023-11-18T08:00:27;4.00;99.90
52058;DHT22;38063;53.210;6.504;2023-11-18T08:02:57;4.00;99.90
52058;DHT22;38063;53.210;6.504;2023-11-18T08:05:22;4.50;99.90
52058;DHT22;38063;53.210;6.504;2023-11-18T08:07:49;4.00;99.90
52058;DHT22;38063;53.210;6.504;2023-11-18T08:10:15;4.90;99.90
52058;DHT22;38063;53.210;6.504;2023-11-18T08:12:44;4.10;99.90
52058;DHT22;38063;53.210;6.504;2023-11-18T08:15:10;4.10;99.90
52058;DHT22;38063;53.210;6.504;2023-11-18T08:17:36;4.10;99.90
52058;DHT22;38063;53.210;6.504;2023-11-18T08:20:02;4.10;99.90
52058;DHT22;38063;53.210;6.504;2023-11-18T08:22:40;4.10;99.90
52058;DHT22;38063;53.210;6.504;2023-11-18T08:25:06;4.10;99.90
52058;DHT22;38063;53.210;6.504;2023-11-18T08:27:34;4.10;99.90
52058;DHT22;38063;53.210;6.504;2023-11-18T08:30:01;4.10;99.90
52058;DHT22;38063;53.210;6.504;2023-11-18T08:32:32;4.20;99.90
52058;DHT22;38063;53.210;6.504;2023-11-18T08:34:57;4.60;99.90
52058;DHT22;38063;53.210;6.504;2023-11-18T08:37:23;4.20;99.90
52058;DHT22;38063;53.210;6.504;2023-11-18T08:39:49;4.20;99.90
52058;DHT22;38063;53.210;6.504;2023-11-18T08:42:14;4.30;99.90
52058;DHT22;38063;53.210;6.504;2023-11-18T08:44:41;4.20;99.90
52058;DHT22;38063;53.210;6.504;2023-11-18T08:47:08;4.30;99.90
52058;DHT22;38063;53.210;6.504;2023-11-18T08:49:34;4.30;99.90
52058;DHT22;38063;53.210;6.504;2023-11-18T08:52:00;4.70;99.90
52058;DHT22;38063;53.210;6.504;2023-11-18T08:54:26;4.30;99.90
52058;DHT22;38063;53.210;6.504;2023-11-18T08:57:05;4.40;99.90
52058;DHT22;38063;53.210;6.504;2023-11-18T08:59:49;4.40;99.90
52058;DHT22;38063;53.210;6.504;2023-11-18T09:02:17;4.40;99.90
52058;DHT22;38063;53.210;6.504;2023-11-18T09:04:49;4.40;99.90
52058;DHT22;38063;53.210;6.504;2023-11-18T09:07:15;4.40;99.90
52058;DHT22;38063;53.210;6.504;2023-11-18T09:09:41;4.40;99.90
52058;DHT22;38063;53.210;6.504;2023-11-18T09:12:06;4.40;99.90
52058;DHT22;38063;53.210;6.504;2023-11-18T09:14:34;4.50;99.90
52058;DHT22;38063;53.210;6.504;2023-11-18T09:16:59;4.50;99.90
52058;DHT22;38063;53.210;6.504;2023-11-18T09:19:27;4.50;99.90
52058;DHT22;38063;53.210;6.504;2023-11-18T09:21:53;4.50;99.90
52058;DHT22;38063;53.210;6.504;2023-11-18T09:24:20;4.60;99.90
52058;DHT22;38063;53.210;6.504;2023-11-18T09:26:48;4.60;99.90
52058;DHT22;38063;53.210;6.504;2023-11-18T09:29:18;4.40;99.90
52058;DHT22;38063;53.210;6.504;2023-11-18T09:31:47;4.70;99.90
52058;DHT22;38063;53.210;6.504;2023-11-18T09:34:20;4.70;99.90
52058;DHT22;38063;53.210;6.504;2023-11-18T09:36:54;4.90;99.90
52058;DHT22;38063;53.210;6.504;2023-11-18T09:39:20;4.70;99.90
52058;DHT22;38063;53.210;6.504;2023-11-18T09:42:04;4.70;99.90
52058;DHT22;38063;53.210;6.504;2023-11-18T09:44:29;4.80;99.90
52058;DHT22;38063;53.210;6.504;2023-11-18T09:46:57;4.80;99.90
52058;DHT22;38063;53.210;6.504;2023-11-18T09:49:32;4.80;99.90
52058;DHT22;38063;53.210;6.504;2023-11-18T09:52:05;4.80;99.90
52058;DHT22;38063;53.210;6.504;2023-11-18T09:54:40;4.80;99.90
52058;DHT22;38063;53.210;6.504;2023-11-18T09:57:23;4.80;99.90
52058;DHT22;38063;53.210;6.504;2023-11-18T10:00:01;4.80;99.90
52058;DHT22;38063;53.210;6.504;2023-11-18T10:02:39;4.90;99.90
52058;DHT22;38063;53.210;6.504;2023-11-18T10:05:07;4.90;99.90
52058;DHT22;38063;53.210;6.504;2023-11-18T10:07:40;4.90;99.90
52058;DHT22;38063;53.210;6.504;2023-11-18T10:10:07;4.90;99.90
52058;DHT22;38063;53.210;6.504;2023-11-18T10:12:43;4.90;99.90
52058;DHT22;38063;53.210;6.504;2023-11-18T10:15:18;4.90;99.90
52058;DHT22;38063;53.210;6.504;2023-11-18T10:17:45;4.80;99.90
52058;DHT22;38063;53.210;6.504;2023-11-18T10:20:22;4.80;99.90
52058;DHT22;38063;53.210;6.504;2023-11-18T10:23:07;4.80;99.90
52058;DHT22;38063;53.210;6.504;2023-11-18T10:25:55;4.90;99.90
52058;DHT22;38063;53.210;6.504;2023-11-18T10:28:27;4.80;99.90
52058;DHT22;38063;53.210;6.504;2023-11-18T10:31:13;4.90;99.90
52058;DHT22;38063;53.210;6.504;2023-11-18T10:33:43;4.90;99.90
52058;DHT22;38063;53.210;6.504;2023-11-18T10:36:20;4.90;99.90
52058;DHT22;38063;53.210;6.504;2023-11-18T10:38:48;4.80;99.90
52058;DHT22;38063;53.210;6.504;2023-11-18T10:41:21;4.80;99.90
52058;DHT22;38063;53.210;6.504;2023-11-18T10:43:48;4.80;99.90
52058;DHT22;38063;53.210;6.504;2023-11-18T10:46:16;4.80;99.90
52058;DHT22;38063;53.210;6.504;2023-11-18T10:48:42;4.80;99.90
52058;DHT22;38063;53.210;6.504;2023-11-18T10:51:12;4.70;99.90
52058;DHT22;38063;53.210;6.504;2023-11-18T10:53:41;4.80;99.90
52058;DHT22;38063;53.210;6.504;2023-11-18T10:56:21;4.80;99.90
52058;DHT22;38063;53.210;6.504;2023-11-18T10:58:52;4.70;99.90
52058;DHT22;38063;53.210;6.504;2023-11-18T11:01:34;4.70;99.90
52058;DHT22;38063;53.210;6.504;2023-11-18T11:04:04;4.70;99.90
52058;DHT22;38063;53.210;6.504;2023-11-18T11:06:32;4.70;99.90
52058;DHT22;38063;53.210;6.504;2023-11-18T11:08:58;4.70;99.90
52058;DHT22;38063;53.210;6.504;2023-11-18T11:11:31;4.70;99.90
52058;DHT22;38063;53.210;6.504;2023-11-18T11:14:03;5.10;99.90
52058;DHT22;38063;53.210;6.504;2023-11-18T11:16:40;5.10;99.90
52058;DHT22;38063;53.210;6.504;2023-11-18T11:19:23;4.80;99.90
52058;DHT22;38063;53.210;6.504;2023-11-18T11:22:00;4.80;99.90
52058;DHT22;38063;53.210;6.504;2023-11-18T11:27:27;4.80;99.90
52058;DHT22;38063;53.210;6.504;2023-11-18T11:30:22;4.80;99.90
52058;DHT22;38063;53.210;6.504;2023-11-18T11:33:22;4.90;99.90
52058;DHT22;38063;53.210;6.504;2023-11-18T11:35:57;4.90;99.90
52058;DHT22;38063;53.210;6.504;2023-11-18T11:38:25;4.90;99.90
52058;DHT22;38063;53.210;6.504;2023-11-18T11:40:56;4.80;99.90
52058;DHT22;38063;53.210;6.504;2023-11-18T11:43:25;4.80;99.90
52058;DHT22;38063;53.210;6.504;2023-11-18T11:45:54;4.90;99.90
52058;DHT22;38063;53.210;6.504;2023-11-18T11:48:23;4.90;99.90
52058;DHT22;38063;53.210;6.504;2023-11-18T11:51:05;4.90;99.90
52058;DHT22;38063;53.210;6.504;2023-11-18T11:53:47;4.90;99.90
52058;DHT22;38063;53.210;6.504;2023-11-18T11:56:13;4.90;99.90
52058;DHT22;38063;53.210;6.504;2023-11-18T11:58:41;5.20;99.90
52058;DHT22;38063;53.210;6.504;2023-11-18T12:01:47;4.90;99.90
52058;DHT22;38063;53.210;6.504;2023-11-18T12:04:17;4.90;99.90
52058;DHT22;38063;53.210;6.504;2023-11-18T12:06:47;4.90;99.90
52058;DHT22;38063;53.210;6.504;2023-11-18T12:09:14;4.90;99.90
52058;DHT22;38063;53.210;6.504;2023-11-18T12:11:48;4.90;99.90
52058;DHT22;38063;53.210;6.504;2023-11-18T12:14:16;4.90;99.90
52058;DHT22;38063;53.210;6.504;2023-11-18T12:17:03;4.90;99.90
52058;DHT22;38063;53.210;6.504;2023-11-18T12:19:47;4.90;99.90
52058;DHT22;38063;53.210;6.504;2023-11-18T12:22:17;4.90;99.90
52058;DHT22;38063;53.210;6.504;2023-11-18T12:27:45;4.90;99.90
52058;DHT22;38063;53.210;6.504;2023-11-18T12:33:00;4.90;99.90
52058;DHT22;38063;53.210;6.504;2023-11-18T12:38:57;5.00;99.90
52058;DHT22;38063;53.210;6.504;2023-11-18T12:49:16;5.10;99.90
52058;DHT22;38063;53.210;6.504;2023-11-18T12:51:45;5.00;99.90
52058;DHT22;38063;53.210;6.504;2023-11-18T12:54:11;5.10;99.90
52058;DHT22;38063;53.210;6.504;2023-11-18T12:56:41;5.40;99.90
52058;DHT22;38063;53.210;6.504;2023-11-18T12:59:10;5.10;99.90
52058;DHT22;38063;53.210;6.504;2023-11-18T13:01:38;5.10;99.90
52058;DHT22;38063;53.210;6.504;2023-11-18T13:04:07;5.10;99.90
52058;DHT22;38063;53.210;6.504;2023-11-18T13:06:34;5.10;99.90
52058;DHT22;38063;53.210;6.504;2023-11-18T13:09:00;5.10;99.90
52058;DHT22;38063;53.210;6.504;2023-11-18T13:11:31;5.10;99.90
52058;DHT22;38063;53.210;6.504;2023-11-18T13:13:59;5.10;99.90
52058;DHT22;38063;53.210;6.504;2023-11-18T13:16:24;5.10;99.90
52058;DHT22;38063;53.210;6.504;2023-11-18T13:18:51;5.10;99.90
52058;DHT22;38063;53.210;6.504;2023-11-18T13:21:19;5.10;99.90
52058;DHT22;38063;53.210;6.504;2023-11-18T13:23:51;5.10;99.90
52058;DHT22;38063;53.210;6.504;2023-11-18T13:26:19;5.10;99.90
52058;DHT22;38063;53.210;6.504;2023-11-18T13:28:48;5.10;99.90
52058;DHT22;38063;53.210;6.504;2023-11-18T13:31:15;5.10;99.90
52058;DHT22;38063;53.210;6.504;2023-11-18T13:33:43;5.10;99.90
52058;DHT22;38063;53.210;6.504;2023-11-18T13:36:12;5.10;99.90
52058;DHT22;38063;53.210;6.504;2023-11-18T13:38:39;5.20;99.90
52058;DHT22;38063;53.210;6.504;2023-11-18T13:41:05;5.10;99.90
52058;DHT22;38063;53.210;6.504;2023-11-18T13:43:46;5.20;99.90
52058;DHT22;38063;53.210;6.504;2023-11-18T13:46:18;5.20;99.90
52058;DHT22;38063;53.210;6.504;2023-11-18T13:48:49;5.20;99.90
52058;DHT22;38063;53.210;6.504;2023-11-18T13:51:15;5.20;99.90
52058;DHT22;38063;53.210;6.504;2023-11-18T13:53:42;5.20;99.90
52058;DHT22;38063;53.210;6.504;2023-11-18T13:56:14;5.30;99.90
52058;DHT22;38063;53.210;6.504;2023-11-18T13:58:43;5.20;99.90
52058;DHT22;38063;53.210;6.504;2023-11-18T14:01:11;5.60;99.90
52058;DHT22;38063;53.210;6.504;2023-11-18T14:03:40;5.30;99.90
52058;DHT22;38063;53.210;6.504;2023-11-18T14:06:09;5.30;99.90
52058;DHT22;38063;53.210;6.504;2023-11-18T14:08:45;5.30;99.90
52058;DHT22;38063;53.210;6.504;2023-11-18T14:11:11;5.30;99.90
52058;DHT22;38063;53.210;6.504;2023-11-18T14:13:36;5.30;99.90
52058;DHT22;38063;53.210;6.504;2023-11-18T14:16:03;5.30;99.90
52058;DHT22;38063;53.210;6.504;2023-11-18T14:18:30;5.30;99.90
52058;DHT22;38063;53.210;6.504;2023-11-18T14:20:56;5.30;99.90
52058;DHT22;38063;53.210;6.504;2023-11-18T14:23:22;5.30;99.90
52058;DHT22;38063;53.210;6.504;2023-11-18T14:25:48;5.30;99.90
52058;DHT22;38063;53.210;6.504;2023-11-18T14:28:14;5.30;99.90
52058;DHT22;38063;53.210;6.504;2023-11-18T14:30:40;5.30;99.90
52058;DHT22;38063;53.210;6.504;2023-11-18T14:33:07;5.30;99.90
52058;DHT22;38063;53.210;6.504;2023-11-18T14:35:33;5.30;99.90
52058;DHT22;38063;53.210;6.504;2023-11-18T14:38:02;5.30;99.90
52058;DHT22;38063;53.210;6.504;2023-11-18T14:40:28;5.30;99.90
52058;DHT22;38063;53.210;6.504;2023-11-18T14:42:54;5.30;99.90
52058;DHT22;38063;53.210;6.504;2023-11-18T14:45:20;5.30;99.90
52058;DHT22;38063;53.210;6.504;2023-11-18T14:47:47;5.30;99.90
52058;DHT22;38063;53.210;6.504;2023-11-18T14:50:20;5.30;99.90
52058;DHT22;38063;53.210;6.504;2023-11-18T14:52:47;5.30;99.90
52058;DHT22;38063;53.210;6.504;2023-11-18T14:55:16;5.30;99.90
52058;DHT22;38063;53.210;6.504;2023-11-18T14:57:43;5.30;99.90
52058;DHT22;38063;53.210;6.504;2023-11-18T15:00:10;5.30;99.90
52058;DHT22;38063;53.210;6.504;2023-11-18T15:02:48;5.30;99.90
52058;DHT22;38063;53.210;6.504;2023-11-18T15:05:15;5.30;99.90
52058;DHT22;38063;53.210;6.504;2023-11-18T15:07:51;5.30;99.90
52058;DHT22;38063;53.210;6.504;2023-11-18T15:10:19;5.30;99.90
52058;DHT22;38063;53.210;6.504;2023-11-18T15:12:49;6.40;99.90
52058;DHT22;38063;53.210;6.504;2023-11-18T15:15:22;6.00;99.90
52058;DHT22;38063;53.210;6.504;2023-11-18T15:17:48;5.40;99.90
52058;DHT22;38063;53.210;6.504;2023-11-18T15:20:15;5.30;99.90
52058;DHT22;38063;53.210;6.504;2023-11-18T15:22:44;5.80;99.90
52058;DHT22;38063;53.210;6.504;2023-11-18T15:25:10;5.40;99.90
52058;DHT22;38063;53.210;6.504;2023-11-18T15:27:44;5.40;99.90
52058;DHT22;38063;53.210;6.504;2023-11-18T15:30:12;5.40;99.90
52058;DHT22;38063;53.210;6.504;2023-11-18T15:32:42;5.40;99.90
52058;DHT22;38063;53.210;6.504;2023-11-18T15:35:09;5.40;99.90
52058;DHT22;38063;53.210;6.504;2023-11-18T15:40:02;5.40;99.90
52058;DHT22;38063;53.210;6.504;2023-11-18T15:42:42;5.50;99.90
52058;DHT22;38063;53.210;6.504;2023-11-18T15:45:12;5.50;99.90
52058;DHT22;38063;53.210;6.504;2023-11-18T15:47:40;5.50;99.90
52058;DHT22;38063;53.210;6.504;2023-11-18T15:50:08;5.40;99.90
52058;DHT22;38063;53.210;6.504;2023-11-18T15:52:38;5.50;99.90
52058;DHT22;38063;53.210;6.504;2023-11-18T15:55:05;5.50;99.90
52058;DHT22;38063;53.210;6.504;2023-11-18T15:57:39;5.50;99.90
52058;DHT22;38063;53.210;6.504;2023-11-18T16:00:10;5.50;99.90
52058;DHT22;38063;53.210;6.504;2023-11-18T16:02:54;5.50;99.90
52058;DHT22;38063;53.210;6.504;2023-11-18T16:05:21;5.70;99.90
52058;DHT22;38063;53.210;6.504;2023-11-18T16:07:48;5.60;99.90
52058;DHT22;38063;53.210;6.504;2023-11-18T16:10:17;5.60;99.90
52058;DHT22;38063;53.210;6.504;2023-11-18T16:12:49;5.60;99.90
52058;DHT22;38063;53.210;6.504;2023-11-18T16:15:21;5.60;99.90
52058;DHT22;38063;53.210;6.504;2023-11-18T16:17:54;5.60;99.90